Lady Ayan — 3EET5 — position and weather

sailwx.info

Track history (hours):
 
Tides and Currents Weather Stations Pressure Air Temp Water Temp Dewpoint Dewpoint Depression Visibility Wind Speed Wind Dir Waves Ship Positions

Lady Ayan

Last reported at 2017-Nov-16 18:02 UTC. Time now 2017-Nov-19 07:01 UTC.
Position N 40°57' E 028°57'.

Length 95 m; draft 3.6 m.

Type: Cargo ship. MMSI: 372212000.

Date/timePositionNaut miles runAvg speedWind from/ knotsBaromVisibWave heightAir tempDewpointWater temp
2017-Nov-16 18:02N 40°57' E 028°57'110.1
2017-Nov-16 17:59N 40°56' E 028°58'5 9.7
2017-Nov-16 17:29N 40°52' E 029°01'510.1
2017-Nov-16 16:59N 40°48' E 029°06'511.0
2017-Nov-16 16:30N 40°47' E 029°12'510.7
2017-Nov-16 16:00N 40°45' E 029°19'510.8
2017-Nov-16 15:30N 40°45' E 029°26'2 0.1
2017-Nov-15 10:44N 40°43' E 029°25'210.1
2017-Nov-15 10:30N 40°43' E 029°21'4 8.7
2017-Nov-15 09:59N 40°43' E 029°16'510.3
2017-Nov-15 09:30N 40°42' E 029°09'18 1.5
2017-Nov-14 21:18N 40°25' E 029°05'0 0.0
2017-Nov-14 20:55N 40°25' E 029°05'0 0.0
2017-Nov-14 20:30N 40°25' E 029°05'0 0.0
2017-Nov-14 20:01N 40°25' E 029°05'0 0.0
2017-Nov-14 19:25N 40°25' E 029°05'0 0.0
2017-Nov-14 19:01N 40°25' E 029°05'0 0.0
2017-Nov-14 17:31N 40°25' E 029°05'0 0.0
2017-Nov-14 17:01N 40°25' E 029°05'0 0.0
2017-Nov-14 16:25N 40°25' E 029°05'0 0.0
2017-Nov-14 15:55N 40°25' E 029°05'0 0.0
2017-Nov-14 15:25N 40°25' E 029°05'0 0.0
2017-Nov-14 04:07N 40°25' E 029°05'0 0.0
2017-Nov-14 04:01N 40°25' E 029°05'0 0.0
2017-Nov-14 02:13N 40°25' E 029°05'0 0.0
2017-Nov-14 01:55N 40°25' E 029°05'0 0.0
2017-Nov-14 01:25N 40°25' E 029°05'0 0.0
2017-Nov-14 00:55N 40°25' E 029°05'0 0.0
2017-Nov-14 00:31N 40°25' E 029°05'0 0.0
2017-Nov-14 00:00N 40°25' E 029°05'0 0.0
2017-Nov-13 23:31N 40°25' E 029°05'0 0.0
2017-Nov-13 21:43N 40°25' E 029°05'  
2017-Nov-08 22:14N 37°47' E 016°02'410.4
2017-Nov-08 21:53N 37°48' E 015°58'410.5
2017-Nov-08 21:30N 37°49' E 015°53'510.4
2017-Nov-08 21:00N 37°50' E 015°47'510.3
2017-Nov-08 20:30N 37°52' E 015°40'5 9.3
2017-Nov-08 20:00N 37°54' E 015°35'510.2
2017-Nov-08 19:30N 37°59' E 015°34'510.0
2017-Nov-08 19:00N 38°04' E 015°33'5 9.8
2017-Nov-08 18:30N 38°09' E 015°35'5 9.9
2017-Nov-08 18:00N 38°14' E 015°36'4 8.6
2017-Nov-08 17:30N 38°16' E 015°40'5 9.4
2017-Nov-08 17:00N 38°21' E 015°41'5 9.7
2017-Nov-08 16:30N 38°26' E 015°40'5 9.3
2017-Nov-08 15:59N 38°30' E 015°39'5 9.3
2017-Nov-08 15:30N 38°35' E 015°39'5 9.1
2017-Nov-08 15:00N 38°40' E 015°39'5 9.0
2017-Nov-08 14:25N 38°45' E 015°39'5 8.7
2017-Nov-08 13:54N 38°49' E 015°37'4 9.3
2017-Nov-08 13:25N 38°53' E 015°34'5 9.4
2017-Nov-08 12:55N 38°57' E 015°31'  
Track history (hours):
 
Tides and Currents Weather Stations Pressure Air Temp Water Temp Dewpoint Dewpoint Depression Visibility Wind Speed Wind Dir Waves Ship Positions

Lady Ayan

Last reported at 2017-Nov-16 18:02 UTC. Time now 2017-Nov-19 07:01 UTC.
Position N 40°57' E 028°57'.

Length 95 m; draft 3.6 m.

Type: Cargo ship. MMSI: 372212000.

Date/timePositionNaut miles runAvg speedWind from/ knotsBaromVisibWave heightAir tempDewpointWater temp
2017-Nov-16 18:02N 40°57' E 028°57'110.1
2017-Nov-16 17:59N 40°56' E 028°58'5 9.7
2017-Nov-16 17:29N 40°52' E 029°01'510.1
2017-Nov-16 16:59N 40°48' E 029°06'511.0
2017-Nov-16 16:30N 40°47' E 029°12'510.7
2017-Nov-16 16:00N 40°45' E 029°19'510.8
2017-Nov-16 15:30N 40°45' E 029°26'2 0.1
2017-Nov-15 10:44N 40°43' E 029°25'210.1
2017-Nov-15 10:30N 40°43' E 029°21'4 8.7
2017-Nov-15 09:59N 40°43' E 029°16'510.3
2017-Nov-15 09:30N 40°42' E 029°09'18 1.5
2017-Nov-14 21:18N 40°25' E 029°05'0 0.0
2017-Nov-14 20:55N 40°25' E 029°05'0 0.0
2017-Nov-14 20:30N 40°25' E 029°05'0 0.0
2017-Nov-14 20:01N 40°25' E 029°05'0 0.0
2017-Nov-14 19:25N 40°25' E 029°05'0 0.0
2017-Nov-14 19:01N 40°25' E 029°05'0 0.0
2017-Nov-14 17:31N 40°25' E 029°05'0 0.0
2017-Nov-14 17:01N 40°25' E 029°05'0 0.0
2017-Nov-14 16:25N 40°25' E 029°05'0 0.0
2017-Nov-14 15:55N 40°25' E 029°05'0 0.0
2017-Nov-14 15:25N 40°25' E 029°05'0 0.0
2017-Nov-14 04:07N 40°25' E 029°05'0 0.0
2017-Nov-14 04:01N 40°25' E 029°05'0 0.0
2017-Nov-14 02:13N 40°25' E 029°05'0 0.0
2017-Nov-14 01:55N 40°25' E 029°05'0 0.0
2017-Nov-14 01:25N 40°25' E 029°05'0 0.0
2017-Nov-14 00:55N 40°25' E 029°05'0 0.0
2017-Nov-14 00:31N 40°25' E 029°05'0 0.0
2017-Nov-14 00:00N 40°25' E 029°05'0 0.0
2017-Nov-13 23:31N 40°25' E 029°05'0 0.0
2017-Nov-13 21:43N 40°25' E 029°05'  
2017-Nov-08 22:14N 37°47' E 016°02'410.4
2017-Nov-08 21:53N 37°48' E 015°58'410.5
2017-Nov-08 21:30N 37°49' E 015°53'510.4
2017-Nov-08 21:00N 37°50' E 015°47'510.3
2017-Nov-08 20:30N 37°52' E 015°40'5 9.3
2017-Nov-08 20:00N 37°54' E 015°35'510.2
2017-Nov-08 19:30N 37°59' E 015°34'510.0
2017-Nov-08 19:00N 38°04' E 015°33'5 9.8
2017-Nov-08 18:30N 38°09' E 015°35'5 9.9
2017-Nov-08 18:00N 38°14' E 015°36'4 8.6
2017-Nov-08 17:30N 38°16' E 015°40'5 9.4
2017-Nov-08 17:00N 38°21' E 015°41'5 9.7
2017-Nov-08 16:30N 38°26' E 015°40'5 9.3
2017-Nov-08 15:59N 38°30' E 015°39'5 9.3
2017-Nov-08 15:30N 38°35' E 015°39'5 9.1
2017-Nov-08 15:00N 38°40' E 015°39'5 9.0
2017-Nov-08 14:25N 38°45' E 015°39'5 8.7
2017-Nov-08 13:54N 38°49' E 015°37'4 9.3
2017-Nov-08 13:25N 38°53' E 015°34'5 9.4
2017-Nov-08 12:55N 38°57' E 015°31'  

Dump ship's entire track history